Time;durP1;ratioP1;P1;durP2;ratioP2;P2;SDS_P1;SDS_P2;PMS_P1;PMS_P2;Temp;Humidity;BMP_temperature;BMP_pressure;BME280_temperature;BME280_humidity;BME280_pressure;Samples;Min_cycle;Max_cycle;Signal;HPM_P1;HPM_P2
2022/09/02 00:01:31;;;;;;;5.40;1.30;;;;;;;;;;4990796;28;20073;-71
2022/09/02 00:04:02;;;;;;;5.43;1.27;;;;;;;;;;4990843;28;20571;-71
2022/09/02 00:06:30;;;;;;;4.30;1.30;;;;;;;;;;4968873;28;20073;-71
2022/09/02 00:08:56;;;;;;;5.25;1.40;;;;;;;;;;4985468;28;20465;-71
2022/09/02 00:11:24;;;;;;;5.75;1.40;;;;;;;;;;4969670;28;20050;-71
2022/09/02 00:13:50;;;;;;;5.72;1.70;;;;;;;;;;4985564;28;20077;-71
2022/09/02 00:16:17;;;;;;;5.70;1.55;;;;;;;;;;4986506;28;20038;-71
2022/09/02 00:18:43;;;;;;;4.75;1.20;;;;;;;;;;4986448;28;20069;-71
2022/09/02 00:21:12;;;;;;;4.78;1.40;;;;;;;;;;4992804;28;20075;-71
2022/09/02 00:23:38;;;;;;;6.10;1.65;;;;;;;;;;4992123;28;20521;-71
2022/09/02 00:26:05;;;;;;;3.65;1.20;;;;;;;;;;4975431;28;20077;-71
2022/09/02 00:28:31;;;;;;;3.97;1.63;;;;;;;;;;4993628;28;20569;-71
2022/09/02 00:30:57;;;;;;;5.75;1.40;;;;;;;;;;4958374;28;20137;-70
2022/09/02 00:33:23;;;;;;;4.13;1.40;;;;;;;;;;4990278;28;20058;-71
2022/09/02 00:35:49;;;;;;;3.67;1.40;;;;;;;;;;4993806;28;20053;-71
2022/09/02 00:38:15;;;;;;;6.22;1.48;;;;;;;;;;4992460;28;20034;-71
2022/09/02 00:40:46;;;;;;;4.72;1.40;;;;;;;;;;4966632;28;20046;-71
2022/09/02 00:43:21;;;;;;;4.93;1.67;;;;;;;;;;4989563;28;20049;-71
2022/09/02 00:45:47;;;;;;;4.45;1.33;;;;;;;;;;4993179;28;20387;-71
2022/09/02 00:48:13;;;;;;;4.47;1.60;;;;;;;;;;4992272;28;20497;-71
2022/09/02 00:50:39;;;;;;;7.38;1.50;;;;;;;;;;4993766;28;20042;-71
2022/09/02 00:53:07;;;;;;;3.90;1.40;;;;;;;;;;4993889;28;20053;-71
2022/09/02 00:55:40;;;;;;;4.88;1.45;;;;;;;;;;4991467;28;20049;-71
2022/09/02 00:58:08;;;;;;;6.53;1.65;;;;;;;;;;4979516;28;20077;-71
2022/09/02 01:00:37;;;;;;;4.80;1.67;;;;;;;;;;4990856;28;20414;-71
2022/09/02 01:03:07;;;;;;;6.30;1.33;;;;;;;;;;4993401;28;20125;-71
2022/09/02 01:05:35;;;;;;;6.30;1.38;;;;;;;;;;4994169;28;20042;-71
2022/09/02 01:08:01;;;;;;;3.83;1.40;;;;;;;;;;4990865;28;20078;-71
2022/09/02 01:10:33;;;;;;;4.57;1.30;;;;;;;;;;4993289;28;20039;-70
2022/09/02 01:13:02;;;;;;;6.30;1.38;;;;;;;;;;4965968;28;20053;-71
2022/09/02 01:15:30;;;;;;;3.53;1.40;;;;;;;;;;4971256;28;20056;-71
2022/09/02 01:17:56;;;;;;;5.95;1.73;;;;;;;;;;4992794;28;20051;-71
2022/09/02 01:20:23;;;;;;;6.07;1.50;;;;;;;;;;4979467;28;20046;-71
2022/09/02 01:22:50;;;;;;;5.20;1.25;;;;;;;;;;4991084;28;20074;-71
2022/09/02 01:25:25;;;;;;;4.30;1.52;;;;;;;;;;4956663;28;20046;-71
2022/09/02 01:27:52;;;;;;;6.72;1.38;;;;;;;;;;4954415;28;20050;-71
2022/09/02 01:30:20;;;;;;;4.82;1.40;;;;;;;;;;4991949;28;20046;-71
2022/09/02 01:32:46;;;;;;;3.72;1.55;;;;;;;;;;4990381;28;20124;-71
2022/09/02 01:35:14;;;;;;;5.72;1.58;;;;;;;;;;4991775;28;20053;-71
2022/09/02 01:37:40;;;;;;;5.35;1.48;;;;;;;;;;4972352;28;20104;-71
2022/09/02 01:40:08;;;;;;;7.50;1.65;;;;;;;;;;4992836;28;20050;-71
2022/09/02 01:42:34;;;;;;;6.03;1.65;;;;;;;;;;4990824;28;20513;-71
2022/09/02 01:45:00;;;;;;;7.43;1.58;;;;;;;;;;4991129;28;20089;-71
2022/09/02 01:47:27;;;;;;;5.07;1.50;;;;;;;;;;4988166;28;20046;-71
2022/09/02 01:49:53;;;;;;;4.05;1.40;;;;;;;;;;4993109;28;20050;-71
2022/09/02 01:52:20;;;;;;;3.58;1.50;;;;;;;;;;4990659;28;20486;-71
2022/09/02 01:54:46;;;;;;;6.20;1.60;;;;;;;;;;4992537;28;20042;-71
2022/09/02 01:57:13;;;;;;;4.57;1.30;;;;;;;;;;4990831;28;20498;-71
2022/09/02 01:59:39;;;;;;;4.07;1.38;;;;;;;;;;4991960;28;20042;-71
2022/09/02 02:02:06;;;;;;;4.63;1.50;;;;;;;;;;4991851;28;20065;-71
2022/09/02 02:04:33;;;;;;;5.47;1.67;;;;;;;;;;4990993;28;20042;-71
2022/09/02 02:06:59;;;;;;;5.35;1.50;;;;;;;;;;4992015;28;20049;-71
2022/09/02 02:09:25;;;;;;;4.78;1.50;;;;;;;;;;4991584;28;20070;-71
2022/09/02 02:11:51;;;;;;;5.78;1.60;;;;;;;;;;4953140;28;20101;-71
2022/09/02 02:14:17;;;;;;;4.88;1.67;;;;;;;;;;4981701;28;20138;-71
2022/09/02 02:16:43;;;;;;;5.38;1.58;;;;;;;;;;4989064;28;20508;-71
2022/09/02 02:19:09;;;;;;;4.97;1.90;;;;;;;;;;4991882;28;20075;-71
2022/09/02 02:21:36;;;;;;;4.28;1.67;;;;;;;;;;4986276;28;20039;-71
2022/09/02 02:24:02;;;;;;;5.38;1.50;;;;;;;;;;4979038;28;20049;-71
2022/09/02 02:26:29;;;;;;;5.95;1.60;;;;;;;;;;4990923;28;20069;-71
2022/09/02 02:28:55;;;;;;;5.28;1.60;;;;;;;;;;4990609;28;20445;-71
2022/09/02 02:31:23;;;;;;;6.53;1.73;;;;;;;;;;4991992;28;20515;-71
2022/09/02 02:33:49;;;;;;;5.65;1.60;;;;;;;;;;4975550;28;20405;-71
2022/09/02 02:36:17;;;;;;;3.97;1.73;;;;;;;;;;4973741;28;20104;-71
2022/09/02 02:38:45;;;;;;;3.83;1.63;;;;;;;;;;4990249;28;20070;-71
2022/09/02 02:41:11;;;;;;;5.38;1.52;;;;;;;;;;4992309;28;20133;-71
2022/09/02 02:43:37;;;;;;;5.95;1.80;;;;;;;;;;4991060;28;20498;-71
2022/09/02 02:46:03;;;;;;;4.45;1.90;;;;;;;;;;4992090;28;20052;-70
2022/09/02 02:48:30;;;;;;;5.65;1.88;;;;;;;;;;4971924;28;20133;-71
2022/09/02 02:50:56;;;;;;;6.03;1.80;;;;;;;;;;4990284;28;20046;-71
2022/09/02 02:53:22;;;;;;;5.43;1.60;;;;;;;;;;4990553;28;20054;-71
2022/09/02 02:55:49;;;;;;;6.00;1.80;;;;;;;;;;4991840;28;20046;-71
2022/09/02 02:58:15;;;;;;;7.32;1.70;;;;;;;;;;4973754;28;20100;-71
2022/09/02 03:00:42;;;;;;;9.45;1.70;;;;;;;;;;4989100;28;20092;-71
2022/09/02 03:03:09;;;;;;;5.25;1.70;;;;;;;;;;4991843;28;20042;-71
2022/09/02 03:05:37;;;;;;;5.57;1.83;;;;;;;;;;4978041;28;20112;-71
2022/09/02 03:08:06;;;;;;;5.13;1.70;;;;;;;;;;4994121;28;20042;-71
2022/09/02 03:10:33;;;;;;;5.38;1.70;;;;;;;;;;4992386;28;20564;-71
2022/09/02 03:12:59;;;;;;;3.88;1.50;;;;;;;;;;4993913;28;20069;-71
2022/09/02 03:15:26;;;;;;;4.93;1.75;;;;;;;;;;4989026;28;20054;-71
2022/09/02 03:17:52;;;;;;;4.18;1.90;;;;;;;;;;4994292;28;20053;-71
2022/09/02 03:20:18;;;;;;;4.03;1.63;;;;;;;;;;4995344;28;20394;-71
2022/09/02 03:22:46;;;;;;;4.82;1.92;;;;;;;;;;4981218;28;20078;-71
2022/09/02 03:25:13;;;;;;;3.92;1.60;;;;;;;;;;4994927;28;20525;-71
2022/09/02 03:27:40;;;;;;;4.63;1.55;;;;;;;;;;4994959;28;20633;-71
2022/09/02 03:30:07;;;;;;;4.43;1.60;;;;;;;;;;4950750;28;20042;-71
2022/09/02 03:32:33;;;;;;;4.50;1.60;;;;;;;;;;4989091;28;20053;-71
2022/09/02 03:35:01;;;;;;;5.22;1.65;;;;;;;;;;4993373;28;20485;-71
2022/09/02 03:37:27;;;;;;;4.35;1.70;;;;;;;;;;4993543;28;20066;-71
2022/09/02 03:39:53;;;;;;;5.10;1.80;;;;;;;;;;4991338;28;20064;-71
2022/09/02 03:42:19;;;;;;;4.75;1.73;;;;;;;;;;4994403;28;20038;-71
2022/09/02 03:44:45;;;;;;;5.03;1.52;;;;;;;;;;4974311;28;20061;-71
2022/09/02 03:47:12;;;;;;;4.07;1.45;;;;;;;;;;4992766;28;20405;-71
2022/09/02 03:49:38;;;;;;;5.95;1.65;;;;;;;;;;4993880;28;20125;-71
2022/09/02 03:52:05;;;;;;;3.33;1.55;;;;;;;;;;4995855;28;20046;-71
2022/09/02 03:54:31;;;;;;;3.17;1.58;;;;;;;;;;4980442;28;20437;-71
2022/09/02 03:56:57;;;;;;;5.28;1.70;;;;;;;;;;4995149;28;20046;-71
2022/09/02 03:59:23;;;;;;;9.07;1.92;;;;;;;;;;4993370;28;20116;-71
2022/09/02 04:01:50;;;;;;;4.72;1.77;;;;;;;;;;4995371;28;20129;-71
2022/09/02 04:04:18;;;;;;;5.18;1.83;;;;;;;;;;4993320;28;20052;-71
2022/09/02 04:06:44;;;;;;;4.30;1.80;;;;;;;;;;4993829;28;20042;-71
2022/09/02 04:09:10;;;;;;;5.93;1.90;;;;;;;;;;4993095;28;20054;-71
2022/09/02 04:11:41;;;;;;;5.10;1.63;;;;;;;;;;4981049;28;20395;-71
2022/09/02 04:14:07;;;;;;;5.72;1.83;;;;;;;;;;4993024;28;20655;-71
2022/09/02 04:16:34;;;;;;;5.15;1.95;;;;;;;;;;4994294;28;20047;-71
2022/09/02 04:19:04;;;;;;;6.57;2.20;;;;;;;;;;4993410;28;20057;-71
2022/09/02 04:21:32;;;;;;;5.85;2.05;;;;;;;;;;4994303;28;20046;-71
2022/09/02 04:23:58;;;;;;;4.95;1.88;;;;;;;;;;4995014;28;20042;-71
2022/09/02 04:26:24;;;;;;;4.28;2.00;;;;;;;;;;4981493;28;20049;-71
2022/09/02 04:28:50;;;;;;;6.07;2.10;;;;;;;;;;4993654;28;20081;-71
2022/09/02 04:31:17;;;;;;;6.53;2.25;;;;;;;;;;4974702;28;20105;-71
2022/09/02 04:33:43;;;;;;;7.40;2.45;;;;;;;;;;4989548;28;20075;-71
2022/09/02 04:36:11;;;;;;;9.05;2.53;;;;;;;;;;4968886;28;20050;-71
2022/09/02 04:38:37;;;;;;;5.72;2.63;;;;;;;;;;4993332;28;20042;-72
2022/09/02 04:41:13;;;;;;;5.90;2.40;;;;;;;;;;4993272;28;20045;-71
2022/09/02 04:43:40;;;;;;;6.00;2.38;;;;;;;;;;4987277;28;20078;-69
2022/09/02 04:46:07;;;;;;;6.43;2.15;;;;;;;;;;4991814;28;20039;-72
2022/09/02 04:48:35;;;;;;;7.65;2.58;;;;;;;;;;4990797;28;20065;-71
2022/09/02 04:51:05;;;;;;;7.38;2.20;;;;;;;;;;4982630;28;20057;-71
2022/09/02 04:53:31;;;;;;;4.85;2.00;;;;;;;;;;4976156;28;20054;-71
2022/09/02 04:55:58;;;;;;;5.57;2.35;;;;;;;;;;4993762;28;20146;-71
2022/09/02 04:58:24;;;;;;;5.55;2.30;;;;;;;;;;4992248;28;20117;-71
2022/09/02 05:00:50;;;;;;;5.25;2.10;;;;;;;;;;4993253;28;20077;-71
2022/09/02 05:03:16;;;;;;;6.30;2.20;;;;;;;;;;4990351;28;20093;-71
2022/09/02 05:05:41;;;;;;;4.38;2.10;;;;;;;;;;4985527;28;20054;-71
2022/09/02 05:08:08;;;;;;;7.32;2.10;;;;;;;;;;4991344;28;20104;-71
2022/09/02 05:10:35;;;;;;;9.23;2.42;;;;;;;;;;4991958;28;20097;-71
2022/09/02 05:13:02;;;;;;;6.15;2.33;;;;;;;;;;4975959;28;20046;-71
2022/09/02 05:15:28;;;;;;;5.35;2.40;;;;;;;;;;4992659;28;20073;-71
2022/09/02 05:17:54;;;;;;;6.07;2.35;;;;;;;;;;4946309;28;20089;-71
2022/09/02 05:20:20;;;;;;;5.10;2.13;;;;;;;;;;4990756;28;20476;-71
2022/09/02 05:22:46;;;;;;;6.50;2.55;;;;;;;;;;4987748;28;20057;-71
2022/09/02 05:25:12;;;;;;;7.25;2.28;;;;;;;;;;4991142;28;20058;-71
2022/09/02 05:27:38;;;;;;;6.00;2.30;;;;;;;;;;4991373;28;20050;-71
2022/09/02 05:30:05;;;;;;;9.65;2.80;;;;;;;;;;4992944;28;20050;-71
2022/09/02 05:32:31;;;;;;;4.78;2.50;;;;;;;;;;4971744;28;20116;-71
2022/09/02 05:34:57;;;;;;;6.18;2.38;;;;;;;;;;4962141;28;20153;-71
2022/09/02 05:37:23;;;;;;;7.68;2.60;;;;;;;;;;4990494;28;20379;-71
2022/09/02 05:39:50;;;;;;;5.65;2.15;;;;;;;;;;4993395;28;20051;-71
2022/09/02 05:42:18;;;;;;;4.90;2.17;;;;;;;;;;4992923;28;20048;-71
2022/09/02 05:44:44;;;;;;;9.48;2.40;;;;;;;;;;4990271;28;20050;-71
2022/09/02 05:47:10;;;;;;;9.10;2.40;;;;;;;;;;4990158;28;20051;-71
2022/09/02 05:49:36;;;;;;;11.43;2.40;;;;;;;;;;4989095;28;20049;-71
2022/09/02 05:52:03;;;;;;;8.52;2.58;;;;;;;;;;4975183;28;20086;-71
2022/09/02 05:54:35;;;;;;;9.80;2.30;;;;;;;;;;4967690;28;20054;-72
2022/09/02 05:57:07;;;;;;;7.80;2.13;;;;;;;;;;4993154;28;20042;-71
2022/09/02 05:59:37;;;;;;;5.03;2.15;;;;;;;;;;4992338;28;20043;-71
2022/09/02 06:02:03;;;;;;;6.68;2.20;;;;;;;;;;4992730;28;20077;-71
2022/09/02 06:04:30;;;;;;;9.35;2.10;;;;;;;;;;4989938;28;20528;-72
2022/09/02 06:06:57;;;;;;;8.05;2.00;;;;;;;;;;4985607;28;20132;-72
2022/09/02 06:09:23;;;;;;;8.75;2.22;;;;;;;;;;4985315;28;20077;-72
2022/09/02 06:11:50;;;;;;;9.18;2.22;;;;;;;;;;4988473;28;20046;-72
2022/09/02 06:14:18;;;;;;;8.35;2.03;;;;;;;;;;4982244;28;20042;-72
2022/09/02 06:16:44;;;;;;;4.10;1.80;;;;;;;;;;4958808;28;20099;-71
2022/09/02 06:19:10;;;;;;;7.72;2.10;;;;;;;;;;4990293;28;20515;-70
2022/09/02 06:21:37;;;;;;;13.02;2.30;;;;;;;;;;4988339;28;20050;-70
2022/09/02 06:24:07;;;;;;;6.28;2.05;;;;;;;;;;4985811;28;20133;-70
2022/09/02 06:26:33;;;;;;;4.20;1.88;;;;;;;;;;4973927;28;20104;-70
2022/09/02 06:28:59;;;;;;;5.38;1.70;;;;;;;;;;4981138;28;20457;-72
2022/09/02 06:31:25;;;;;;;6.80;2.00;;;;;;;;;;4973252;28;20418;-71
2022/09/02 06:33:53;;;;;;;6.00;1.60;;;;;;;;;;4973296;28;20058;-71
2022/09/02 06:36:19;;;;;;;8.80;1.75;;;;;;;;;;4985100;28;20050;-71
2022/09/02 06:38:47;;;;;;;5.22;1.70;;;;;;;;;;4990422;28;20127;-71
2022/09/02 06:41:14;;;;;;;5.95;1.98;;;;;;;;;;4986998;28;20168;-71
2022/09/02 06:43:40;;;;;;;5.32;2.00;;;;;;;;;;4990151;28;20045;-71
2022/09/02 06:46:06;;;;;;;7.22;1.70;;;;;;;;;;5000231;28;20057;-71
2022/09/02 06:48:33;;;;;;;7.32;1.55;;;;;;;;;;4971030;28;20126;-71
2022/09/02 06:51:00;;;;;;;5.35;1.48;;;;;;;;;;4985178;28;20035;-70
2022/09/02 06:53:26;;;;;;;6.60;1.80;;;;;;;;;;4991613;28;20089;-71
2022/09/02 06:55:52;;;;;;;4.60;1.70;;;;;;;;;;4990497;28;20046;-71
2022/09/02 06:58:18;;;;;;;6.88;1.70;;;;;;;;;;4991912;28;20591;-71
2022/09/02 07:00:44;;;;;;;4.80;1.80;;;;;;;;;;4991789;28;20856;-71
2022/09/02 07:05:59;;;;;;;4.90;1.80;;;;;;;;;;4990189;28;20051;-71
2022/09/02 07:08:25;;;;;;;8.70;1.65;;;;;;;;;;4990626;28;20081;-71
2022/09/02 07:10:51;;;;;;;5.55;1.75;;;;;;;;;;4990365;28;20054;-71
2022/09/02 07:13:17;;;;;;;5.35;1.75;;;;;;;;;;4991825;28;20119;-71
2022/09/02 07:15:44;;;;;;;6.53;1.80;;;;;;;;;;4990239;28;20861;-70
2022/09/02 07:18:10;;;;;;;6.78;1.67;;;;;;;;;;4991543;28;20139;-71
2022/09/02 07:20:36;;;;;;;6.28;1.80;;;;;;;;;;4987801;28;20050;-73
2022/09/02 07:23:03;;;;;;;4.18;1.50;;;;;;;;;;4988759;28;20193;-68
2022/09/02 07:25:29;;;;;;;10.23;2.00;;;;;;;;;;4989727;28;20050;-69
2022/09/02 07:27:55;;;;;;;4.78;1.80;;;;;;;;;;4991773;28;20092;-70
2022/09/02 07:30:22;;;;;;;6.82;1.65;;;;;;;;;;4990099;28;20050;-69
2022/09/02 07:32:48;;;;;;;6.00;1.80;;;;;;;;;;4990985;28;20055;-68
2022/09/02 07:35:14;;;;;;;7.93;1.70;;;;;;;;;;4973502;28;20046;-67
2022/09/02 07:37:40;;;;;;;6.32;1.60;;;;;;;;;;4990082;28;20122;-69
2022/09/02 07:40:07;;;;;;;7.18;1.70;;;;;;;;;;4990783;28;20049;-68
2022/09/02 07:42:33;;;;;;;7.63;1.98;;;;;;;;;;4987252;28;20081;-68
2022/09/02 07:45:00;;;;;;;5.93;1.80;;;;;;;;;;4990251;28;20085;-67
2022/09/02 07:47:26;;;;;;;14.82;1.90;;;;;;;;;;4989566;28;20046;-68
2022/09/02 07:49:52;;;;;;;7.70;2.00;;;;;;;;;;4991120;28;20461;-68
2022/09/02 07:52:18;;;;;;;8.40;1.80;;;;;;;;;;4993832;28;20043;-68
2022/09/02 07:54:44;;;;;;;9.98;1.60;;;;;;;;;;4993157;28;20077;-69
2022/09/02 07:57:10;;;;;;;10.23;1.58;;;;;;;;;;4993447;28;20052;-69
2022/09/02 07:59:36;;;;;;;7.15;1.63;;;;;;;;;;4993111;28;20061;-69
2022/09/02 08:02:02;;;;;;;7.18;1.67;;;;;;;;;;4974912;28;20069;-69
2022/09/02 08:04:28;;;;;;;8.73;1.50;;;;;;;;;;4995051;28;20038;-70
2022/09/02 08:06:58;;;;;;;6.10;1.50;;;;;;;;;;4992882;28;20101;-70
2022/09/02 08:09:24;;;;;;;6.90;1.48;;;;;;;;;;4992476;28;20084;-70
2022/09/02 08:11:51;;;;;;;9.55;1.38;;;;;;;;;;4991322;28;20074;-69
2022/09/02 08:14:24;;;;;;;10.05;1.58;;;;;;;;;;4989369;28;20049;-69
2022/09/02 08:16:51;;;;;;;8.48;1.85;;;;;;;;;;4992895;28;20065;-68
2022/09/02 08:19:17;;;;;;;11.55;1.35;;;;;;;;;;4975714;28;20056;-69
2022/09/02 08:21:44;;;;;;;8.35;1.60;;;;;;;;;;4994183;28;20085;-69
2022/09/02 08:24:10;;;;;;;4.50;1.30;;;;;;;;;;4993949;28;20077;-69
2022/09/02 08:26:36;;;;;;;4.47;1.30;;;;;;;;;;4992040;28;20046;-72
2022/09/02 08:29:05;;;;;;;7.07;1.33;;;;;;;;;;4960351;28;20046;-70
2022/09/02 08:31:32;;;;;;;5.70;1.50;;;;;;;;;;4990735;28;20050;-69
2022/09/02 08:33:58;;;;;;;5.93;1.40;;;;;;;;;;4984854;28;20054;-73
2022/09/02 08:36:25;;;;;;;5.20;1.50;;;;;;;;;;4991547;28;20097;-72
2022/09/02 08:38:51;;;;;;;6.60;1.50;;;;;;;;;;4993106;28;20406;-72
2022/09/02 08:41:18;;;;;;;6.70;1.40;;;;;;;;;;4992144;28;20109;-69
2022/09/02 08:43:44;;;;;;;16.70;1.73;;;;;;;;;;4986147;28;20047;-69
2022/09/02 08:46:13;;;;;;;10.02;1.40;;;;;;;;;;4992905;28;20085;-69
2022/09/02 08:48:52;;;;;;;8.38;1.52;;;;;;;;;;4992953;28;20149;-69
2022/09/02 08:51:38;;;;;;;8.32;1.40;;;;;;;;;;4993128;28;20042;-69
2022/09/02 08:54:04;;;;;;;6.13;1.63;;;;;;;;;;4975804;28;20062;-69
2022/09/02 08:56:31;;;;;;;9.15;1.70;;;;;;;;;;4993295;28;20431;-68
2022/09/02 08:59:01;;;;;;;8.27;1.50;;;;;;;;;;4993037;28;20046;-70
2022/09/02 09:01:29;;;;;;;5.53;1.30;;;;;;;;;;4991899;28;20505;-70
2022/09/02 09:04:05;;;;;;;23.63;2.47;;;;;;;;;;4993094;28;20168;-70
2022/09/02 09:06:40;;;;;;;8.98;1.60;;;;;;;;;;4992984;28;20477;-70
2022/09/02 09:09:06;;;;;;;7.13;1.50;;;;;;;;;;4994021;28;20053;-70
2022/09/02 09:11:32;;;;;;;6.97;1.50;;;;;;;;;;4993519;28;20096;-70
2022/09/02 09:13:58;;;;;;;5.38;1.40;;;;;;;;;;4992065;28;20046;-70
2022/09/02 09:16:42;;;;;;;6.30;1.15;;;;;;;;;;4993260;28;20409;-70
2022/09/02 09:19:11;;;;;;;4.78;1.40;;;;;;;;;;4991412;28;20046;-70
2022/09/02 09:21:39;;;;;;;6.25;1.42;;;;;;;;;;4993292;28;20125;-70
2022/09/02 09:24:24;;;;;;;10.07;1.52;;;;;;;;;;4992597;28;20489;-70
2022/09/02 09:26:50;;;;;;;7.07;1.73;;;;;;;;;;4992874;28;20046;-71
2022/09/02 09:29:16;;;;;;;5.18;1.40;;;;;;;;;;4972594;28;20102;-70
2022/09/02 09:31:43;;;;;;;6.90;1.80;;;;;;;;;;4989950;28;20066;-70
2022/09/02 09:34:12;;;;;;;6.70;1.40;;;;;;;;;;4991726;28;20524;-70
2022/09/02 09:36:38;;;;;;;8.10;1.52;;;;;;;;;;4993139;28;20046;-70
2022/09/02 09:39:16;;;;;;;5.88;1.50;;;;;;;;;;4974515;28;20162;-70
2022/09/02 09:41:42;;;;;;;7.68;1.58;;;;;;;;;;4972175;28;20112;-70
2022/09/02 09:44:08;;;;;;;7.68;1.33;;;;;;;;;;4991579;28;20042;-70
2022/09/02 09:46:34;;;;;;;4.80;1.45;;;;;;;;;;4990536;28;20452;-70
2022/09/02 09:49:01;;;;;;;5.28;1.17;;;;;;;;;;4991900;28;20046;-70
2022/09/02 09:51:27;;;;;;;5.05;1.20;;;;;;;;;;4992738;28;20512;-70
2022/09/02 09:53:53;;;;;;;6.38;1.20;;;;;;;;;;4992125;28;20046;-70
2022/09/02 09:56:25;;;;;;;7.95;1.50;;;;;;;;;;4991717;28;20064;-70
2022/09/02 09:58:52;;;;;;;11.32;1.45;;;;;;;;;;4991897;28;20141;-70
2022/09/02 10:01:21;;;;;;;9.48;1.77;;;;;;;;;;4973485;28;20555;-70
2022/09/02 10:03:51;;;;;;;6.80;1.30;;;;;;;;;;4990504;28;20042;-71
2022/09/02 10:06:22;;;;;;;4.47;1.00;;;;;;;;;;4991837;28;20126;-70
2022/09/02 10:08:48;;;;;;;;;;;;;;;;;;4993613;28;20057;-70
2022/09/02 10:11:22;;;;;;;4.85;1.20;;;;;;;;;;4989605;28;19926;-70
2022/09/02 10:13:48;;;;;;;4.63;1.20;;;;;;;;;;4987298;28;20049;-70
2022/09/02 10:16:14;;;;;;;5.40;1.45;;;;;;;;;;4990210;28;20125;-71
2022/09/02 10:18:47;;;;;;;6.30;1.30;;;;;;;;;;4987527;28;20038;-70
2022/09/02 10:21:16;;;;;;;4.60;1.27;;;;;;;;;;4991160;28;20053;-70
2022/09/02 10:23:54;;;;;;;4.65;1.20;;;;;;;;;;4992031;28;20117;-71
2022/09/02 10:26:31;;;;;;;6.50;0.93;;;;;;;;;;4980315;28;20038;-70
2022/09/02 10:29:21;;;;;;;3.97;1.00;;;;;;;;;;4992078;28;20489;-71
2022/09/02 10:31:47;;;;;;;4.30;1.35;;;;;;;;;;4990298;28;20149;-70
2022/09/02 10:34:13;;;;;;;9.00;1.13;;;;;;;;;;4989903;28;20054;-71
2022/09/02 10:36:39;;;;;;;7.07;1.10;;;;;;;;;;4991607;28;20050;-70
2022/09/02 10:39:14;;;;;;;5.18;1.10;;;;;;;;;;4973420;28;20043;-70
2022/09/02 10:41:44;;;;;;;5.00;1.40;;;;;;;;;;4979606;28;20497;-72
2022/09/02 10:44:10;;;;;;;4.40;1.10;;;;;;;;;;4992494;28;20111;-69
2022/09/02 10:46:44;;;;;;;6.45;1.10;;;;;;;;;;4988059;28;20501;-69
2022/09/02 10:49:15;;;;;;;4.35;1.20;;;;;;;;;;4989781;28;20047;-69
2022/09/02 10:51:49;;;;;;;7.85;1.20;;;;;;;;;;4986934;28;20065;-70
2022/09/02 10:54:15;;;;;;;3.80;0.90;;;;;;;;;;4981499;28;20054;-69
2022/09/02 10:56:52;;;;;;;10.13;1.63;;;;;;;;;;4982891;28;20375;-69
2022/09/02 10:59:20;;;;;;;4.82;1.13;;;;;;;;;;4991842;28;20039;-69
2022/09/02 11:02:10;;;;;;;4.13;0.90;;;;;;;;;;4991564;28;20038;-71
2022/09/02 11:04:40;;;;;;;5.85;1.05;;;;;;;;;;4991786;28;20530;-70
2022/09/02 11:07:09;;;;;;;6.30;1.10;;;;;;;;;;4991746;28;20065;-70
2022/09/02 11:09:50;;;;;;;4.15;0.85;;;;;;;;;;4974743;28;20047;-70
2022/09/02 11:12:20;;;;;;;5.32;1.10;;;;;;;;;;4989092;28;20061;-70
2022/09/02 11:14:52;;;;;;;22.70;1.73;;;;;;;;;;4990588;28;20116;-69
2022/09/02 11:17:50;;;;;;;9.57;1.30;;;;;;;;;;4991204;28;20401;-71
2022/09/02 11:20:35;;;;;;;16.80;1.25;;;;;;;;;;4938632;28;20232;-69
2022/09/02 11:23:01;;;;;;;4.50;0.90;;;;;;;;;;4987759;28;20046;-69
2022/09/02 11:25:33;;;;;;;7.78;1.00;;;;;;;;;;4992482;28;20053;-69
2022/09/02 11:28:13;;;;;;;10.20;1.13;;;;;;;;;;4992814;28;20042;-70
2022/09/02 11:30:50;;;;;;;10.15;1.25;;;;;;;;;;4993079;28;20089;-70
2022/09/02 11:33:22;;;;;;;10.48;1.52;;;;;;;;;;4981930;28;20069;-70
2022/09/02 11:35:49;;;;;;;4.53;1.10;;;;;;;;;;4994897;28;20047;-70
2022/09/02 11:38:34;;;;;;;5.25;1.20;;;;;;;;;;4976278;28;20525;-70
2022/09/02 11:41:19;;;;;;;6.25;1.10;;;;;;;;;;4977545;28;20045;-69
2022/09/02 11:43:48;;;;;;;10.98;2.70;;;;;;;;;;4995049;28;20410;-69
2022/09/02 11:46:25;;;;;;;6.50;1.48;;;;;;;;;;4990677;28;20045;-69
2022/09/02 11:48:51;;;;;;;8.07;1.23;;;;;;;;;;4993600;28;20134;-70
2022/09/02 11:51:50;;;;;;;5.07;1.10;;;;;;;;;;4991439;28;20490;-70
2022/09/02 11:54:17;;;;;;;4.03;1.20;;;;;;;;;;4889647;29;20052;-70
2022/09/02 11:56:47;;;;;;;7.53;1.20;;;;;;;;;;4890281;29;20555;-70
2022/09/02 11:59:23;;;;;;;7.55;1.52;;;;;;;;;;4897234;29;20084;-69
2022/09/02 12:01:51;;;;;;;4.68;1.77;;;;;;;;;;4897177;29;20184;-70
2022/09/02 12:04:19;;;;;;;8.30;1.40;;;;;;;;;;4896309;29;20065;-70
2022/09/02 12:07:05;;;;;;;5.05;1.20;;;;;;;;;;4894530;29;20408;-70
2022/09/02 12:09:50;;;;;;;8.10;1.25;;;;;;;;;;4880932;29;20052;-69
2022/09/02 12:12:35;;;;;;;8.25;1.33;;;;;;;;;;4896715;29;20049;-70
2022/09/02 12:15:10;;;;;;;4.78;1.10;;;;;;;;;;4881560;29;20052;-70
2022/09/02 12:17:38;;;;;;;3.95;1.13;;;;;;;;;;4891293;29;20140;-70
2022/09/02 12:20:07;;;;;;;5.32;1.25;;;;;;;;;;4887460;29;20057;-70
2022/09/02 12:22:37;;;;;;;6.18;1.15;;;;;;;;;;4869137;29;20135;-70
2022/09/02 12:25:03;;;;;;;7.18;1.15;;;;;;;;;;4887650;29;20516;-70
2022/09/02 12:27:30;;;;;;;6.43;1.02;;;;;;;;;;4896950;29;20049;-70
2022/09/02 12:29:57;;;;;;;8.60;1.20;;;;;;;;;;4939426;28;20062;-70
2022/09/02 12:32:43;;;;;;;9.38;1.33;;;;;;;;;;4975001;28;20067;-70
2022/09/02 12:35:12;;;;;;;3.55;1.10;;;;;;;;;;4988916;28;20081;-70
2022/09/02 12:37:57;;;;;;;3.60;1.20;;;;;;;;;;4993213;28;20058;-70
2022/09/02 12:40:26;;;;;;;2.42;1.05;;;;;;;;;;4976235;28;20042;-71
2022/09/02 12:42:53;;;;;;;5.68;1.00;;;;;;;;;;4994530;28;20517;-70
2022/09/02 12:45:23;;;;;;;5.18;1.05;;;;;;;;;;4993912;28;20042;-70
2022/09/02 12:47:59;;;;;;;3.47;1.00;;;;;;;;;;4977098;28;20046;-69
2022/09/02 12:50:25;;;;;;;3.20;0.95;;;;;;;;;;4971678;28;20092;-69
2022/09/02 12:53:06;;;;;;;4.43;1.00;;;;;;;;;;4991335;28;20061;-70
2022/09/02 12:55:34;;;;;;;5.28;1.10;;;;;;;;;;4991229;28;20046;-69
2022/09/02 12:58:19;;;;;;;2.90;1.10;;;;;;;;;;4994210;28;20069;-69
2022/09/02 13:00:51;;;;;;;2.88;1.00;;;;;;;;;;4993112;28;20042;-69
2022/09/02 13:03:35;;;;;;;4.95;0.90;;;;;;;;;;4984049;28;20491;-69
2022/09/02 13:06:02;;;;;;;3.13;1.10;;;;;;;;;;4992657;28;20056;-69
2022/09/02 13:08:38;;;;;;;6.50;1.10;;;;;;;;;;4992711;28;20185;-69
2022/09/02 13:11:23;;;;;;;6.32;1.20;;;;;;;;;;4991433;28;20158;-70
2022/09/02 13:14:08;;;;;;;5.72;1.10;;;;;;;;;;4991480;28;20038;-70
2022/09/02 13:16:53;;;;;;;3.35;1.00;;;;;;;;;;4984443;28;20057;-69
2022/09/02 13:19:27;;;;;;;7.47;0.90;;;;;;;;;;4992182;28;20050;-70
2022/09/02 13:22:12;;;;;;;6.90;1.17;;;;;;;;;;4988874;28;20057;-69
2022/09/02 13:24:56;;;;;;;5.78;0.98;;;;;;;;;;4993803;28;20096;-70
2022/09/02 13:27:38;;;;;;;14.88;1.45;;;;;;;;;;4993127;28;20396;-70
2022/09/02 13:30:22;;;;;;;5.05;1.27;;;;;;;;;;4993783;28;20061;-70
2022/09/02 13:32:55;;;;;;;5.78;1.42;;;;;;;;;;4993324;28;20055;-71
2022/09/02 13:35:24;;;;;;;3.55;1.00;;;;;;;;;;4974309;28;20361;-69
2022/09/02 13:37:55;;;;;;;3.10;1.02;;;;;;;;;;4991476;28;20108;-70
2022/09/02 13:40:40;;;;;;;6.78;1.40;;;;;;;;;;4985739;28;20490;-69
2022/09/02 13:43:12;;;;;;;5.72;1.30;;;;;;;;;;4977885;28;20467;-69
2022/09/02 13:45:39;;;;;;;6.85;1.75;;;;;;;;;;4992492;28;20053;-69
2022/09/02 13:48:19;;;;;;;5.07;1.20;;;;;;;;;;4973864;28;20112;-69
2022/09/02 13:50:47;;;;;;;4.88;1.10;;;;;;;;;;4975779;28;20125;-69
2022/09/02 13:53:17;;;;;;;4.53;1.33;;;;;;;;;;4974095;28;20047;-69
2022/09/02 13:55:48;;;;;;;4.35;1.40;;;;;;;;;;4992653;28;20046;-69
2022/09/02 13:58:41;;;;;;;5.25;1.00;;;;;;;;;;4990458;28;20062;-69
2022/09/02 14:01:22;;;;;;;4.43;0.95;;;;;;;;;;4987864;28;20054;-69
2022/09/02 14:03:50;;;;;;;7.70;1.05;;;;;;;;;;4993134;28;20046;-69
2022/09/02 14:06:17;;;;;;;3.20;1.05;;;;;;;;;;4992866;28;20204;-69
2022/09/02 14:08:43;;;;;;;6.53;1.27;;;;;;;;;;5011543;28;20046;-69
2022/09/02 14:11:13;;;;;;;4.05;1.20;;;;;;;;;;4992795;28;20058;-69
2022/09/02 14:13:42;;;;;;;3.50;1.10;;;;;;;;;;4991115;28;20054;-69
2022/09/02 14:16:32;;;;;;;6.65;1.23;;;;;;;;;;4993090;28;20050;-70
2022/09/02 14:19:09;;;;;;;4.25;1.00;;;;;;;;;;4974842;28;20158;-69
2022/09/02 14:21:36;;;;;;;4.25;1.27;;;;;;;;;;4992985;28;20065;-69
2022/09/02 14:24:02;;;;;;;4.15;1.10;;;;;;;;;;4958303;28;20096;-71
2022/09/02 14:26:40;;;;;;;6.50;1.30;;;;;;;;;;4990214;28;20406;-71
2022/09/02 14:29:07;;;;;;;4.68;1.38;;;;;;;;;;4973513;28;20051;-71
2022/09/02 14:31:34;;;;;;;5.00;1.80;;;;;;;;;;4965435;28;20103;-71
2022/09/02 14:34:05;;;;;;;6.93;2.00;;;;;;;;;;4992152;28;20539;-71
2022/09/02 14:36:31;;;;;;;5.03;1.30;;;;;;;;;;4991885;28;20410;-72
2022/09/02 14:39:07;;;;;;;5.68;1.25;;;;;;;;;;4991960;28;20046;-72
2022/09/02 14:41:37;;;;;;;5.00;1.30;;;;;;;;;;4989096;28;20062;-71
2022/09/02 14:44:15;;;;;;;4.47;1.10;;;;;;;;;;4991508;28;20050;-71
2022/09/02 14:46:48;;;;;;;4.78;1.40;;;;;;;;;;4969105;28;20063;-71
2022/09/02 14:49:23;;;;;;;5.07;1.50;;;;;;;;;;4982607;28;20042;-70
2022/09/02 14:51:54;;;;;;;8.30;1.35;;;;;;;;;;4970708;28;20046;-71
2022/09/02 14:54:20;;;;;;;;;;;;;;;;;;4984088;28;20177;-71
2022/09/02 14:56:50;;;;;;;6.63;1.50;;;;;;;;;;4990121;28;20015;-71
2022/09/02 14:59:17;;;;;;;5.28;1.27;;;;;;;;;;4990066;28;20540;-71